Time;durP1;ratioP1;P1;durP2;ratioP2;P2;SDS_P1;SDS_P2;PMS_P1;PMS_P2;Temp;Humidity;BMP_temperature;BMP_pressure;BME280_temperature;BME280_humidity;BME280_pressure;Samples;Min_cycle;Max_cycle;Signal;HPM_P1;HPM_P2
2020/12/01 00:00:20;;;;;;;3.03;2.08;;;21.30;40.30;;;;;;5047636;28;20033;-51
2020/12/01 00:02:46;;;;;;;3.28;1.75;;;21.30;40.30;;;;;;5022749;28;20116;-51
2020/12/01 00:05:13;;;;;;;2.25;1.88;;;21.30;40.30;;;;;;5036768;28;20430;-47
2020/12/01 00:07:39;;;;;;;2.63;1.63;;;21.30;40.30;;;;;;5039064;28;20029;-47
2020/12/01 00:10:06;;;;;;;1.95;1.83;;;21.30;40.40;;;;;;5052144;28;20025;-49
2020/12/01 00:12:32;;;;;;;2.08;1.38;;;21.30;40.30;;;;;;5035582;28;20045;-48
2020/12/01 00:14:57;;;;;;;2.63;1.77;;;21.30;40.40;;;;;;5033066;28;20037;-52
2020/12/01 00:17:23;;;;;;;2.20;1.70;;;21.30;40.40;;;;;;5022689;28;20088;-51
2020/12/01 00:19:48;;;;;;;2.42;1.83;;;21.30;40.40;;;;;;5046288;28;20026;-51
2020/12/01 00:22:14;;;;;;;2.13;1.63;;;21.30;40.40;;;;;;5044797;28;20029;-50
2020/12/01 00:24:40;;;;;;;3.42;1.98;;;21.20;40.30;;;;;;5040581;28;20022;-49
2020/12/01 00:27:05;;;;;;;2.00;1.73;;;21.20;40.30;;;;;;5038379;28;20036;-47
2020/12/01 00:29:31;;;;;;;2.10;1.60;;;21.20;40.80;;;;;;5044892;28;20033;-50
2020/12/01 00:31:56;;;;;;;1.67;1.45;;;21.20;40.30;;;;;;5037650;28;20112;-50
2020/12/01 00:34:22;;;;;;;2.15;1.75;;;21.20;40.30;;;;;;5041374;28;20050;-47
2020/12/01 00:36:47;;;;;;;2.22;1.70;;;21.20;40.30;;;;;;5045124;28;20094;-47
2020/12/01 00:39:13;;;;;;;1.83;1.33;;;21.20;40.30;;;;;;5037284;28;20394;-49
2020/12/01 00:41:39;;;;;;;2.17;1.45;;;21.20;40.30;;;;;;5047630;28;20035;-49
2020/12/01 00:44:04;;;;;;;1.90;1.50;;;21.10;40.30;;;;;;5039058;28;20009;-46
2020/12/01 00:46:30;;;;;;;1.48;1.35;;;21.10;40.30;;;;;;5042928;28;20021;-50
2020/12/01 00:48:56;;;;;;;1.30;0.93;;;21.20;40.30;;;;;;5039960;28;20028;-50
2020/12/01 00:51:22;;;;;;;3.45;1.75;;;21.10;40.30;;;;;;5046364;28;20100;-48
2020/12/01 00:53:48;;;;;;;2.00;1.40;;;21.10;40.40;;;;;;5045726;28;20106;-49
2020/12/01 00:56:23;;;;;;;2.45;1.63;;;21.10;40.40;;;;;;5048765;28;20493;-46
2020/12/01 00:58:50;;;;;;;2.00;1.52;;;21.10;40.40;;;;;;5048397;28;20029;-46
2020/12/01 01:01:16;;;;;;;2.10;1.42;;;21.10;40.40;;;;;;5041605;28;20024;-46
2020/12/01 01:03:42;;;;;;;1.60;1.33;;;21.10;40.40;;;;;;5035890;28;20036;-45
2020/12/01 01:06:11;;;;;;;3.30;1.00;;;21.00;40.40;;;;;;5044109;28;20021;-46
2020/12/01 01:08:39;;;;;;;2.72;1.23;;;21.00;40.40;;;;;;5042759;28;20028;-43
2020/12/01 01:11:05;;;;;;;2.70;1.60;;;21.00;40.40;;;;;;5036938;28;20036;-47
2020/12/01 01:13:31;;;;;;;1.48;1.33;;;21.00;40.40;;;;;;5041441;28;20061;-49
2020/12/01 01:15:56;;;;;;;1.83;1.33;;;21.00;40.40;;;;;;5039479;28;20482;-46
2020/12/01 01:18:22;;;;;;;1.75;1.30;;;21.00;40.40;;;;;;5044173;28;20053;-47
2020/12/01 01:20:48;;;;;;;1.90;1.17;;;21.00;40.40;;;;;;5046824;28;20040;-48
2020/12/01 01:23:13;;;;;;;1.92;1.23;;;21.00;40.40;;;;;;5049538;28;20098;-45
2020/12/01 01:25:39;;;;;;;1.40;1.27;;;20.90;40.40;;;;;;5041980;28;20499;-47
2020/12/01 01:28:04;;;;;;;1.00;0.90;;;20.90;40.50;;;;;;5045979;28;20025;-48
2020/12/01 01:30:30;;;;;;;1.98;1.17;;;20.90;40.50;;;;;;5050154;28;20029;-48
2020/12/01 01:32:56;;;;;;;1.50;0.88;;;20.90;40.40;;;;;;5042772;28;20185;-47
2020/12/01 01:35:21;;;;;;;3.20;1.70;;;20.90;40.50;;;;;;5040279;28;20036;-46
2020/12/01 01:37:47;;;;;;;1.60;1.05;;;20.90;40.50;;;;;;5038659;28;20033;-47
2020/12/01 01:40:27;;;;;;;1.85;1.42;;;20.90;40.40;;;;;;5041472;28;20024;-48
2020/12/01 01:42:53;;;;;;;2.08;1.20;;;20.90;40.40;;;;;;5044294;28;20099;-48
2020/12/01 01:45:38;;;;;;;1.73;1.10;;;20.90;40.40;;;;;;5040128;28;20026;-47
2020/12/01 01:48:17;;;;;;;4.35;1.55;;;20.90;40.40;;;;;;5035858;28;20028;-47
2020/12/01 01:50:50;;;;;;;1.50;0.93;;;20.80;40.40;;;;;;5048245;28;20479;-47
2020/12/01 01:53:16;;;;;;;1.60;1.10;;;20.80;40.40;;;;;;5048741;28;20079;-49
2020/12/01 01:55:43;;;;;;;2.42;1.42;;;20.80;40.40;;;;;;5044427;28;20025;-47
2020/12/01 01:58:09;;;;;;;1.63;1.17;;;20.80;40.50;;;;;;5042315;28;20040;-50
2020/12/01 02:01:05;;;;;;;1.95;1.02;;;20.80;40.50;;;;;;5042192;28;20106;-46
2020/12/01 02:03:41;;;;;;;1.90;1.30;;;20.80;40.50;;;;;;5036992;28;20040;-49
2020/12/01 02:06:20;;;;;;;1.40;1.10;;;20.80;40.50;;;;;;5040546;28;20025;-48
2020/12/01 02:08:51;;;;;;;1.52;1.08;;;20.70;40.40;;;;;;5042314;28;20021;-47
2020/12/01 02:11:17;;;;;;;2.13;0.80;;;20.80;40.50;;;;;;5049103;28;20057;-50
2020/12/01 02:13:52;;;;;;;2.47;1.35;;;20.70;40.50;;;;;;5041436;28;20029;-48
2020/12/01 02:16:18;;;;;;;2.00;1.02;;;20.70;40.50;;;;;;5048660;28;20410;-49
2020/12/01 02:18:44;;;;;;;2.97;1.23;;;20.70;40.50;;;;;;5039002;28;20021;-48
2020/12/01 02:21:35;;;;;;;1.42;0.65;;;20.70;40.50;;;;;;5048615;28;20401;-48
2020/12/01 02:24:03;;;;;;;1.30;0.97;;;20.70;40.50;;;;;;5044999;28;20102;-48
2020/12/01 02:26:29;;;;;;;1.63;0.82;;;20.60;40.60;;;;;;5042931;28;20376;-46
2020/12/01 02:28:56;;;;;;;1.55;1.13;;;20.70;40.50;;;;;;5045835;28;20017;-47
2020/12/01 02:31:22;;;;;;;2.00;1.02;;;20.60;40.50;;;;;;5038725;28;20048;-47
2020/12/01 02:33:48;;;;;;;2.00;1.10;;;20.60;40.60;;;;;;5034318;28;20021;-47
2020/12/01 02:36:14;;;;;;;1.73;0.88;;;20.60;40.60;;;;;;5045896;28;20542;-47
2020/12/01 02:38:41;;;;;;;1.40;1.10;;;20.60;40.60;;;;;;5039681;28;20082;-51
2020/12/01 02:41:06;;;;;;;2.08;1.02;;;20.60;40.60;;;;;;5044083;28;20029;-49
2020/12/01 02:43:32;;;;;;;2.15;1.02;;;20.60;40.60;;;;;;5041582;28;20025;-46
2020/12/01 02:45:58;;;;;;;1.30;0.90;;;20.60;40.60;;;;;;5042607;28;20025;-49
2020/12/01 02:48:24;;;;;;;1.35;0.95;;;20.50;40.60;;;;;;5043104;28;20438;-50
2020/12/01 02:50:49;;;;;;;1.45;1.02;;;20.50;40.60;;;;;;5047457;28;20064;-46
2020/12/01 02:53:15;;;;;;;1.75;0.90;;;20.60;40.60;;;;;;5055025;28;20150;-49
2020/12/01 02:55:40;;;;;;;1.42;0.90;;;20.60;40.60;;;;;;5049693;28;20044;-49
2020/12/01 02:58:06;;;;;;;1.98;0.88;;;20.50;40.60;;;;;;5043267;28;20122;-49
2020/12/01 03:00:33;;;;;;;1.15;0.93;;;20.60;40.70;;;;;;5040490;28;20209;-48
2020/12/01 03:02:59;;;;;;;1.17;0.93;;;20.50;40.60;;;;;;5034303;28;20387;-49
2020/12/01 03:05:24;;;;;;;1.80;1.02;;;20.50;40.60;;;;;;5045863;28;20044;-48
2020/12/01 03:07:50;;;;;;;1.50;0.90;;;20.50;40.70;;;;;;5046863;28;20029;-48
2020/12/01 03:10:17;;;;;;;1.60;0.70;;;20.50;40.60;;;;;;5044213;28;20040;-49
2020/12/01 03:12:42;;;;;;;1.95;0.73;;;20.50;40.60;;;;;;5047618;28;20448;-51
2020/12/01 03:15:11;;;;;;;1.05;0.95;;;20.50;40.60;;;;;;5052741;23;20119;-44
2020/12/01 03:17:37;;;;;;;1.20;0.70;;;20.50;40.60;;;;;;5025407;28;20033;-47
2020/12/01 03:20:03;;;;;;;1.00;0.57;;;20.50;40.60;;;;;;5026814;28;20088;-47
2020/12/01 03:22:29;;;;;;;1.13;0.88;;;20.50;40.60;;;;;;5028182;28;20064;-46
2020/12/01 03:24:54;;;;;;;1.63;0.80;;;20.50;40.60;;;;;;5024882;28;20096;-49
2020/12/01 03:27:20;;;;;;;1.10;0.80;;;20.40;40.60;;;;;;5020969;28;20036;-46
2020/12/01 03:29:45;;;;;;;2.35;0.98;;;20.40;40.70;;;;;;5027027;28;20030;-47
2020/12/01 03:32:11;;;;;;;1.60;0.68;;;20.40;40.70;;;;;;5015970;28;20539;-43
2020/12/01 03:34:36;;;;;;;1.08;0.68;;;20.40;40.70;;;;;;5021246;28;20190;-46
2020/12/01 03:37:02;;;;;;;1.38;0.70;;;20.40;40.70;;;;;;5016425;28;20500;-47
2020/12/01 03:39:28;;;;;;;1.20;0.77;;;20.40;40.70;;;;;;5026214;28;20037;-45
2020/12/01 03:41:53;;;;;;;1.58;0.82;;;20.40;40.60;;;;;;5020100;28;20119;-45
2020/12/01 03:44:19;;;;;;;0.95;0.63;;;20.40;40.70;;;;;;5023000;28;20101;-45
2020/12/01 03:46:44;;;;;;;1.25;0.73;;;20.40;40.80;;;;;;5020544;28;20118;-49
2020/12/01 03:49:10;;;;;;;1.48;0.90;;;20.40;40.70;;;;;;5025917;28;20112;-43
2020/12/01 03:51:35;;;;;;;1.17;0.60;;;20.40;40.70;;;;;;5019395;28;20110;-46
2020/12/01 03:54:01;;;;;;;1.20;0.80;;;20.40;40.80;;;;;;5015877;28;20356;-49
2020/12/01 03:56:26;;;;;;;1.55;0.80;;;20.30;40.80;;;;;;5014012;28;20375;-44
2020/12/01 03:58:52;;;;;;;1.05;0.50;;;20.30;40.80;;;;;;5022185;28;20057;-45
2020/12/01 04:01:17;;;;;;;1.75;0.70;;;20.30;40.80;;;;;;5012508;28;20104;-44
2020/12/01 04:03:43;;;;;;;2.03;0.70;;;20.30;41.20;;;;;;5018767;28;20061;-46
2020/12/01 04:06:09;;;;;;;1.50;0.70;;;20.30;40.70;;;;;;5026302;28;20021;-45
2020/12/01 04:08:34;;;;;;;0.98;0.57;;;20.30;40.70;;;;;;5023017;28;20607;-46
2020/12/01 04:11:04;;;;;;;1.25;0.50;;;20.30;40.80;;;;;;5028428;28;20017;-53
2020/12/01 04:13:31;;;;;;;0.88;0.50;;;20.30;40.80;;;;;;5028728;28;20612;-46
2020/12/01 04:15:57;;;;;;;0.82;0.40;;;20.30;40.80;;;;;;5023579;28;20033;-48
2020/12/01 04:18:22;;;;;;;0.80;0.60;;;20.30;40.80;;;;;;5026080;28;20108;-47
2020/12/01 04:20:48;;;;;;;1.45;0.60;;;20.30;40.70;;;;;;5028687;28;20096;-45
2020/12/01 04:23:14;;;;;;;1.02;0.63;;;20.30;40.80;;;;;;5023390;28;20038;-45
2020/12/01 04:25:39;;;;;;;2.00;0.63;;;20.30;40.80;;;;;;5030529;28;20044;-46
2020/12/01 04:28:05;;;;;;;1.20;0.63;;;20.30;40.70;;;;;;5027521;28;20026;-45
2020/12/01 04:30:31;;;;;;;1.17;0.77;;;20.30;40.80;;;;;;5011820;28;20045;-44
2020/12/01 04:32:56;;;;;;;0.90;0.50;;;20.30;40.80;;;;;;5024044;28;20033;-47
2020/12/01 04:35:24;;;;;;;0.73;0.50;;;20.20;40.80;;;;;;5024818;28;20038;-46
2020/12/01 04:37:49;;;;;;;1.35;0.52;;;20.20;40.90;;;;;;5024354;28;20037;-46
2020/12/01 04:40:20;;;;;;;1.15;0.57;;;20.20;40.80;;;;;;5034706;28;20041;-45
2020/12/01 04:42:52;;;;;;;1.27;0.50;;;20.20;40.80;;;;;;5032860;28;20025;-46
2020/12/01 04:45:18;;;;;;;0.95;0.77;;;20.20;40.80;;;;;;5029138;28;20498;-45
2020/12/01 04:48:03;;;;;;;1.00;0.40;;;20.20;40.90;;;;;;5047471;28;20116;-49
2020/12/01 04:50:44;;;;;;;1.08;0.60;;;20.20;40.90;;;;;;5029063;28;20121;-47
2020/12/01 04:53:33;;;;;;;1.38;0.60;;;20.20;40.90;;;;;;5030807;28;20035;-48
2020/12/01 04:56:26;;;;;;;0.85;0.60;;;20.20;40.90;;;;;;5030223;28;20025;-49
2020/12/01 04:59:17;;;;;;;0.85;0.40;;;20.10;40.80;;;;;;5022470;28;20117;-44
2020/12/01 05:02:26;;;;;;;1.40;0.70;;;20.20;40.80;;;;;;5026378;28;20029;-42
2020/12/01 05:05:11;;;;;;;1.35;0.43;;;20.10;40.80;;;;;;5024435;28;20034;-41
2020/12/01 05:08:14;;;;;;;0.93;0.60;;;20.10;40.70;;;;;;5029034;28;20021;-45
2020/12/01 05:10:46;;;;;;;1.08;0.55;;;20.20;40.90;;;;;;5023287;28;20088;-45
2020/12/01 05:13:33;;;;;;;0.88;0.35;;;20.10;40.80;;;;;;5021219;28;20033;-47
2020/12/01 05:16:14;;;;;;;0.73;0.40;;;20.10;40.90;;;;;;5022505;28;20041;-46
2020/12/01 05:18:41;;;;;;;1.60;0.52;;;20.10;40.90;;;;;;5020230;28;20036;-45
2020/12/01 05:21:08;;;;;;;1.00;0.47;;;20.10;40.90;;;;;;5025911;28;20037;-49
2020/12/01 05:23:39;;;;;;;1.00;0.68;;;20.10;40.90;;;;;;5024205;28;20038;-44
2020/12/01 05:26:08;;;;;;;1.25;0.45;;;20.10;40.90;;;;;;5029820;28;20087;-48
2020/12/01 05:28:43;;;;;;;1.10;0.40;;;20.10;40.90;;;;;;5026797;28;20430;-45
2020/12/01 05:31:08;;;;;;;1.20;0.50;;;20.10;40.90;;;;;;5020355;28;20391;-43
2020/12/01 05:33:34;;;;;;;0.77;0.52;;;20.10;40.90;;;;;;5022614;28;20047;-44
2020/12/01 05:36:16;;;;;;;1.00;0.50;;;20.10;40.80;;;;;;5020462;28;20041;-47
2020/12/01 05:38:43;;;;;;;1.13;0.52;;;20.10;41.00;;;;;;5017698;28;20103;-45
2020/12/01 05:41:27;;;;;;;0.90;0.40;;;20.10;41.00;;;;;;5021363;28;21251;-45
2020/12/01 05:44:05;;;;;;;0.90;0.30;;;20.00;40.80;;;;;;5020849;28;20747;-44
2020/12/01 05:46:42;;;;;;;1.65;0.50;;;20.10;40.90;;;;;;5018440;28;20038;-44
2020/12/01 05:49:44;;;;;;;1.15;0.50;;;20.10;40.90;;;;;;5027106;28;20075;-42
2020/12/01 05:52:46;;;;;;;1.35;0.52;;;20.10;40.90;;;;;;4986652;28;20463;-43
2020/12/01 05:55:21;;;;;;;0.90;0.50;;;20.10;40.80;;;;;;5023236;28;20033;-44
2020/12/01 05:57:56;;;;;;;0.80;0.50;;;20.10;40.80;;;;;;5029169;28;20037;-45
2020/12/01 06:00:28;;;;;;;1.58;0.57;;;20.00;40.90;;;;;;5026881;28;21465;-46
2020/12/01 06:03:22;;;;;;;0.75;0.57;;;20.00;40.90;;;;;;5022109;28;20033;-44
2020/12/01 06:05:53;;;;;;;0.93;0.70;;;20.00;41.00;;;;;;5023250;28;20104;-43
2020/12/01 06:08:32;;;;;;;1.50;0.50;;;20.00;41.10;;;;;;5026774;28;20026;-47
2020/12/01 06:11:29;;;;;;;1.00;0.50;;;20.00;41.10;;;;;;5010128;28;20026;-45
2020/12/01 06:14:00;;;;;;;1.50;0.40;;;20.00;41.00;;;;;;5019503;28;20402;-43
2020/12/01 06:16:45;;;;;;;0.80;0.40;;;20.00;41.10;;;;;;5029067;28;20048;-47
2020/12/01 06:19:28;;;;;;;0.70;0.40;;;20.00;41.40;;;;;;5024747;28;20032;-41
2020/12/01 06:22:09;;;;;;;1.23;0.40;;;20.20;40.70;;;;;;5027799;28;20633;-49
2020/12/01 06:25:07;;;;;;;0.68;0.50;;;20.40;40.40;;;;;;5022016;28;21120;-48
2020/12/01 06:28:09;;;;;;;1.42;0.30;;;20.60;40.20;;;;;;5015919;28;20046;-43
2020/12/01 06:30:54;;;;;;;1.27;0.57;;;20.70;39.90;;;;;;5019805;28;20095;-47
2020/12/01 06:33:35;;;;;;;0.98;0.30;;;20.90;39.70;;;;;;5025887;28;20033;-45
2020/12/01 06:36:48;;;;;;;0.80;0.40;;;20.90;39.50;;;;;;5025117;28;20252;-49
2020/12/01 06:39:17;;;;;;;2.25;0.32;;;21.00;39.40;;;;;;5021400;28;20040;-45
2020/12/01 06:42:08;;;;;;;1.48;0.50;;;21.10;39.40;;;;;;5016824;28;20037;-49
2020/12/01 06:44:34;;;;;;;1.10;0.50;;;21.10;39.20;;;;;;5019386;28;20529;-47
2020/12/01 06:46:59;;;;;;;1.85;0.30;;;21.20;39.30;;;;;;5017865;28;20042;-44
2020/12/01 06:49:30;;;;;;;1.25;0.40;;;21.20;39.20;;;;;;5025083;28;20029;-45
2020/12/01 06:52:01;;;;;;;2.25;0.40;;;21.20;39.20;;;;;;5018493;28;20116;-47
2020/12/01 06:54:27;;;;;;;0.70;0.40;;;21.20;39.10;;;;;;5022223;28;20030;-46
2020/12/01 06:57:20;;;;;;;1.25;0.40;;;21.20;39.10;;;;;;5023986;28;20038;-48
2020/12/01 06:59:46;;;;;;;1.48;0.52;;;21.20;39.10;;;;;;5012151;28;20049;-47
2020/12/01 07:02:27;;;;;;;2.40;0.77;;;21.30;39.20;;;;;;5022576;28;20034;-45
2020/12/01 07:05:06;;;;;;;1.02;0.63;;;21.30;39.20;;;;;;5023230;28;20100;-47
2020/12/01 07:07:35;;;;;;;1.00;0.50;;;21.30;39.20;;;;;;5025814;28;20040;-48
2020/12/01 07:10:12;;;;;;;0.60;0.30;;;21.30;39.20;;;;;;5021102;28;20061;-45
2020/12/01 07:12:52;;;;;;;1.40;0.65;;;21.30;39.30;;;;;;5019928;28;20526;-45
2020/12/01 07:15:34;;;;;;;1.25;0.35;;;21.40;39.30;;;;;;5027649;28;20049;-48
2020/12/01 07:18:08;;;;;;;1.23;0.50;;;21.40;39.30;;;;;;5023331;28;20414;-44
2020/12/01 07:20:43;;;;;;;1.52;0.95;;;21.40;39.40;;;;;;5026135;28;20449;-47
2020/12/01 07:23:21;;;;;;;2.78;0.50;;;21.30;39.40;;;;;;5016505;28;20113;-44
2020/12/01 07:26:08;;;;;;;2.72;0.68;;;21.30;39.50;;;;;;5021824;28;20119;-47
2020/12/01 07:28:39;;;;;;;3.33;0.60;;;21.20;39.50;;;;;;5020033;28;20033;-44
2020/12/01 07:31:19;;;;;;;4.85;0.70;;;21.10;39.50;;;;;;5019771;28;20046;-45
2020/12/01 07:33:57;;;;;;;2.28;1.13;;;21.10;39.60;;;;;;5022146;28;20060;-48
2020/12/01 07:36:35;;;;;;;1.73;0.95;;;21.10;39.60;;;;;;5011553;28;20627;-44
2020/12/01 07:39:06;;;;;;;3.00;0.98;;;21.10;39.60;;;;;;5025996;28;20037;-48
2020/12/01 07:41:32;;;;;;;2.50;0.57;;;21.10;39.70;;;;;;5026653;28;20072;-46
2020/12/01 07:43:59;;;;;;;3.20;1.00;;;21.10;39.80;;;;;;5019722;28;20053;-44
2020/12/01 07:46:25;;;;;;;7.60;1.42;;;21.10;39.80;;;;;;5019464;28;20739;-47
2020/12/01 07:49:02;;;;;;;1.77;0.77;;;21.00;39.90;;;;;;5028506;28;20029;-50
2020/12/01 07:51:30;;;;;;;1.20;0.70;;;21.10;39.80;;;;;;5028384;28;20029;-49
2020/12/01 07:53:58;;;;;;;2.67;0.70;;;21.00;39.90;;;;;;5022744;28;20029;-48
2020/12/01 07:56:29;;;;;;;2.28;0.90;;;21.10;40.10;;;;;;5030672;28;20034;-52
2020/12/01 07:59:24;;;;;;;2.33;1.10;;;21.20;40.10;;;;;;5029759;28;20041;-50
2020/12/01 08:01:49;;;;;;;1.50;0.63;;;21.10;40.20;;;;;;5020411;28;20288;-47
2020/12/01 08:04:19;;;;;;;3.17;1.00;;;21.10;40.50;;;;;;5028172;28;20029;-49
2020/12/01 08:06:45;;;;;;;2.20;1.10;;;21.10;40.40;;;;;;5025685;28;20466;-45
2020/12/01 08:09:23;;;;;;;1.77;0.95;;;21.20;40.50;;;;;;5026189;28;20072;-46
2020/12/01 08:11:49;;;;;;;3.30;0.93;;;21.20;40.60;;;;;;5025479;28;20079;-43
2020/12/01 08:14:16;;;;;;;1.70;0.85;;;21.30;40.40;;;;;;5023189;28;20108;-44
2020/12/01 08:16:43;;;;;;;4.85;0.82;;;21.20;40.60;;;;;;5025718;28;20119;-44
2020/12/01 08:19:11;;;;;;;2.25;0.68;;;21.10;40.80;;;;;;5029586;28;20380;-45
2020/12/01 08:21:44;;;;;;;1.25;0.90;;;21.10;41.00;;;;;;5028160;28;20061;-48
2020/12/01 08:24:17;;;;;;;3.15;0.65;;;21.10;41.00;;;;;;5031740;28;20030;-48
2020/12/01 08:26:44;;;;;;;3.90;0.82;;;21.00;40.80;;;;;;5026355;28;20501;-47
2020/12/01 08:29:21;;;;;;;3.90;1.15;;;21.10;40.90;;;;;;5030759;28;20041;-46
2020/12/01 08:31:57;;;;;;;2.25;1.10;;;21.20;40.80;;;;;;5026323;28;20124;-47
2020/12/01 08:34:51;;;;;;;3.55;0.98;;;21.40;40.50;;;;;;5029326;28;20068;-46
2020/12/01 08:37:42;;;;;;;2.28;1.00;;;21.60;40.20;;;;;;5023733;28;20036;-45
2020/12/01 08:40:10;;;;;;;1.40;0.90;;;21.70;40.10;;;;;;5027825;28;20030;-50
2020/12/01 08:42:44;;;;;;;1.20;0.70;;;21.80;40.00;;;;;;5028755;28;20034;-49
2020/12/01 08:45:34;;;;;;;2.20;0.60;;;21.80;40.00;;;;;;5035861;28;20017;-46
2020/12/01 08:48:03;;;;;;;1.48;0.68;;;21.90;40.00;;;;;;5036235;28;20042;-48
2020/12/01 08:50:35;;;;;;;4.40;1.08;;;21.90;39.90;;;;;;5028273;28;20104;-49
2020/12/01 08:53:09;;;;;;;2.10;1.15;;;22.00;39.80;;;;;;5028266;28;20036;-47
2020/12/01 08:55:48;;;;;;;1.40;0.90;;;22.00;39.90;;;;;;5026878;28;20037;-49
2020/12/01 08:58:23;;;;;;;1.83;1.20;;;22.00;40.20;;;;;;5026364;28;20052;-44
2020/12/01 09:01:07;;;;;;;2.20;1.05;;;22.00;40.00;;;;;;5025956;28;20025;-48
2020/12/01 09:03:35;;;;;;;2.53;1.10;;;22.00;40.20;;;;;;5029321;28;20041;-45
2020/12/01 09:06:01;;;;;;;2.17;0.98;;;22.10;40.60;;;;;;5020875;28;20502;-46
2020/12/01 09:17:11;;;;;;;2.10;0.88;;;22.10;39.80;;;;;;5028261;28;20125;-50
2020/12/01 09:22:32;;;;;;;2.90;1.02;;;22.20;39.90;;;;;;5047482;23;20066;-51
2020/12/01 09:25:37;;;;;;;3.38;1.17;;;22.30;40.00;;;;;;5044649;28;20021;-53
2020/12/01 09:28:17;;;;;;;1.58;0.90;;;22.30;39.80;;;;;;5046588;28;20063;-52
2020/12/01 09:30:45;;;;;;;1.42;0.65;;;22.40;40.00;;;;;;5050334;28;20017;-52
2020/12/01 09:33:15;;;;;;;1.55;0.88;;;22.40;40.00;;;;;;5045180;28;20068;-48
2020/12/01 09:35:41;;;;;;;1.88;1.10;;;22.40;40.20;;;;;;5050032;28;20036;-48
2020/12/01 09:38:07;;;;;;;1.30;0.82;;;22.40;40.30;;;;;;5050516;28;20025;-54
2020/12/01 09:40:35;;;;;;;1.88;0.88;;;22.40;40.20;;;;;;5048847;28;20029;-50
2020/12/01 09:43:11;;;;;;;1.95;1.10;;;22.40;40.40;;;;;;5055168;28;20124;-51
2020/12/01 09:45:39;;;;;;;2.08;1.55;;;22.50;40.00;;;;;;5039857;28;20057;-48
2020/12/01 09:50:36;;;;;;;1.40;0.95;;;22.50;40.20;;;;;;5045499;28;20025;-50
2020/12/01 09:55:56;;;;;;;2.03;1.08;;;22.40;40.90;;;;;;5050375;28;20044;-48
2020/12/01 10:08:58;;;;;;;2.08;1.48;;;22.20;40.90;;;;;;5043272;28;20044;-50
2020/12/01 10:35:45;;;;;;;2.42;2.17;;;22.00;41.50;;;;;;5047816;28;20382;-49
2020/12/01 10:38:11;;;;;;;3.88;2.13;;;22.00;41.40;;;;;;5041475;28;20029;-51
2020/12/01 10:40:37;;;;;;;3.17;2.20;;;22.00;41.50;;;;;;5045007;28;20024;-50
2020/12/01 10:43:02;;;;;;;5.00;2.47;;;21.90;41.50;;;;;;5040718;28;20379;-49
2020/12/01 10:45:28;;;;;;;5.13;2.25;;;21.90;41.50;;;;;;5045670;28;20093;-51
2020/12/01 10:47:55;;;;;;;2.95;2.00;;;21.90;41.60;;;;;;5047041;28;20032;-50
2020/12/01 10:50:26;;;;;;;7.25;2.17;;;21.90;41.60;;;;;;5049919;28;20025;-52
2020/12/01 10:52:57;;;;;;;3.88;2.05;;;21.90;41.60;;;;;;5047884;28;20037;-52
2020/12/01 10:55:27;;;;;;;3.20;2.03;;;21.90;41.60;;;;;;5051939;28;20651;-48
2020/12/01 10:57:53;;;;;;;3.42;2.13;;;22.00;41.60;;;;;;5048375;28;20033;-51
2020/12/01 11:00:22;;;;;;;4.28;2.10;;;22.10;41.50;;;;;;5041171;28;20102;-51
2020/12/01 11:02:48;;;;;;;6.18;1.90;;;22.20;41.30;;;;;;5046389;28;20037;-48
2020/12/01 11:05:27;;;;;;;2.95;1.60;;;22.20;41.20;;;;;;5042814;28;20024;-53
2020/12/01 11:07:52;;;;;;;5.45;1.50;;;22.20;41.10;;;;;;5047913;28;20033;-46
2020/12/01 11:10:18;;;;;;;2.63;2.22;;;22.30;41.10;;;;;;5042164;28;20095;-52
2020/12/01 11:12:44;;;;;;;3.83;2.03;;;22.40;41.00;;;;;;5042061;28;20036;-53
2020/12/01 11:15:10;;;;;;;8.35;2.35;;;22.40;40.80;;;;;;5045013;28;20124;-52
2020/12/01 11:17:36;;;;;;;2.88;2.22;;;22.50;40.60;;;;;;5044940;28;20418;-53
2020/12/01 11:20:04;;;;;;;11.98;2.72;;;22.50;40.50;;;;;;5066895;28;20025;-50
2020/12/01 11:22:29;;;;;;;3.88;2.28;;;22.50;40.40;;;;;;5052689;28;20123;-50
2020/12/01 11:24:55;;;;;;;2.28;1.60;;;22.60;40.20;;;;;;5054851;28;20140;-51
2020/12/01 11:27:20;;;;;;;2.45;2.03;;;22.70;40.30;;;;;;5063396;28;20053;-52
2020/12/01 11:29:46;;;;;;;2.95;1.92;;;22.70;40.10;;;;;;5047557;28;20671;-51
2020/12/01 11:32:11;;;;;;;6.18;2.20;;;22.80;40.10;;;;;;5049422;28;20100;-51
2020/12/01 11:34:37;;;;;;;3.55;1.90;;;22.80;40.20;;;;;;5045133;28;20219;-51
2020/12/01 11:37:02;;;;;;;2.83;2.15;;;22.80;40.10;;;;;;5047091;28;20026;-50
2020/12/01 11:39:28;;;;;;;3.67;2.60;;;22.80;40.30;;;;;;5052419;28;20021;-49
2020/12/01 11:41:54;;;;;;;3.08;2.20;;;22.80;40.20;;;;;;5051662;28;20033;-49
2020/12/01 11:44:20;;;;;;;2.60;2.35;;;22.80;40.20;;;;;;5052280;28;20029;-49
2020/12/01 11:46:45;;;;;;;3.55;3.25;;;22.80;40.40;;;;;;5047320;28;20429;-51
2020/12/01 11:49:11;;;;;;;5.82;3.28;;;22.90;40.50;;;;;;5051225;28;20025;-49
2020/12/01 11:51:39;;;;;;;3.28;2.97;;;22.90;40.20;;;;;;5049852;28;20108;-48
2020/12/01 11:54:10;;;;;;;7.28;3.38;;;23.00;40.20;;;;;;5046077;28;20025;-50
2020/12/01 11:56:36;;;;;;;5.43;3.28;;;23.00;40.10;;;;;;5049074;28;20367;-51
2020/12/01 11:59:02;;;;;;;3.67;3.38;;;23.10;40.10;;;;;;5050911;28;20037;-49
2020/12/01 12:01:28;;;;;;;4.95;3.63;;;23.10;40.10;;;;;;5049489;28;20063;-49
2020/12/01 12:03:53;;;;;;;3.92;3.38;;;23.10;40.10;;;;;;5049491;28;20067;-49
2020/12/01 12:06:19;;;;;;;4.03;3.63;;;23.10;40.00;;;;;;5050692;28;20222;-43
2020/12/01 12:08:45;;;;;;;4.85;3.78;;;23.10;40.20;;;;;;5045062;28;20040;-48
2020/12/01 12:11:12;;;;;;;4.60;3.78;;;23.10;40.40;;;;;;5047466;28;20033;-48
2020/12/01 12:13:38;;;;;;;5.07;3.88;;;23.00;40.20;;;;;;5050806;28;20033;-49
2020/12/01 12:16:04;;;;;;;6.72;4.03;;;23.00;40.30;;;;;;5052432;28;20607;-49
2020/12/01 12:18:29;;;;;;;4.38;4.07;;;23.00;40.40;;;;;;5052762;28;20040;-51
2020/12/01 12:20:55;;;;;;;5.97;4.00;;;23.00;40.40;;;;;;5050864;28;20665;-50
2020/12/01 12:23:21;;;;;;;6.22;4.60;;;22.90;40.80;;;;;;5052239;28;20120;-48
2020/12/01 12:25:46;;;;;;;5.10;3.90;;;22.90;40.80;;;;;;5051643;28;20037;-50
2020/12/01 12:28:12;;;;;;;4.30;3.72;;;22.90;40.90;;;;;;5052075;28;20036;-52
2020/12/01 12:30:37;;;;;;;5.30;4.30;;;22.90;41.00;;;;;;5047040;28;20033;-47
2020/12/01 12:33:03;;;;;;;4.55;4.13;;;22.80;41.10;;;;;;5049582;28;20033;-48
2020/12/01 12:35:29;;;;;;;5.47;3.72;;;22.80;41.20;;;;;;5050483;28;20052;-49
2020/12/01 12:37:55;;;;;;;4.80;3.92;;;22.80;41.20;;;;;;5054532;28;20047;-50
2020/12/01 12:40:21;;;;;;;5.55;4.20;;;22.70;41.10;;;;;;5051766;28;20497;-48
2020/12/01 12:42:47;;;;;;;6.00;3.97;;;22.70;41.20;;;;;;5048743;28;20470;-48
2020/12/01 12:45:13;;;;;;;7.20;4.13;;;22.60;41.40;;;;;;5044441;28;20040;-45
2020/12/01 12:47:38;;;;;;;5.70;3.47;;;22.60;41.40;;;;;;5051629;28;20025;-49
2020/12/01 12:50:06;;;;;;;5.10;3.47;;;22.50;41.30;;;;;;5055106;28;20056;-46
2020/12/01 12:52:32;;;;;;;4.85;3.10;;;22.50;41.40;;;;;;5047831;28;20028;-49
2020/12/01 12:54:58;;;;;;;4.90;3.10;;;22.50;41.40;;;;;;5046200;28;20043;-48
2020/12/01 12:57:23;;;;;;;3.50;2.80;;;22.50;41.50;;;;;;5045022;28;20593;-48
2020/12/01 12:59:49;;;;;;;4.00;3.00;;;22.40;41.60;;;;;;5044401;28;20031;-48
2020/12/01 13:02:14;;;;;;;3.65;3.28;;;22.40;41.70;;;;;;5049490;28;20090;-52
2020/12/01 13:04:40;;;;;;;4.45;2.90;;;22.30;41.80;;;;;;5049110;28;20268;-48
2020/12/01 13:07:07;;;;;;;4.93;2.97;;;22.30;41.70;;;;;;5051279;28;20028;-47
2020/12/01 13:09:32;;;;;;;3.50;3.17;;;22.30;41.70;;;;;;5040217;28;20572;-48
2020/12/01 13:11:58;;;;;;;3.05;2.75;;;22.20;41.60;;;;;;5043898;28;20028;-48
2020/12/01 13:14:24;;;;;;;3.92;3.15;;;22.30;41.70;;;;;;5050741;28;20060;-49
2020/12/01 13:16:52;;;;;;;4.38;2.65;;;22.30;41.70;;;;;;5045363;28;20043;-48
2020/12/01 13:19:17;;;;;;;4.07;2.97;;;22.20;41.60;;;;;;5044206;28;20721;-48
2020/12/01 13:21:43;;;;;;;4.90;2.67;;;22.20;41.60;;;;;;5046507;28;20025;-47
2020/12/01 13:24:09;;;;;;;2.47;2.28;;;22.20;41.50;;;;;;5030674;28;20037;-47
2020/12/01 13:26:35;;;;;;;4.40;2.72;;;22.20;41.40;;;;;;5035668;28;20423;-48
2020/12/01 13:29:01;;;;;;;2.40;2.20;;;22.40;41.40;;;;;;5050407;28;20032;-47
2020/12/01 13:31:27;;;;;;;2.60;2.13;;;22.50;41.20;;;;;;5049659;28;20032;-48
2020/12/01 13:33:52;;;;;;;2.08;1.75;;;22.50;40.90;;;;;;5030850;28;20052;-48
2020/12/01 13:36:22;;;;;;;4.18;2.33;;;22.60;40.80;;;;;;5042426;28;20478;-47
2020/12/01 13:38:48;;;;;;;2.85;2.30;;;22.70;40.70;;;;;;5049744;28;20110;-48
2020/12/01 13:41:14;;;;;;;1.60;1.48;;;22.70;40.50;;;;;;5048920;28;20029;-48
2020/12/01 13:43:43;;;;;;;2.30;2.00;;;22.80;40.50;;;;;;5045366;28;20033;-48
2020/12/01 13:46:09;;;;;;;3.40;1.48;;;22.80;40.40;;;;;;5047730;28;20036;-48
2020/12/01 13:48:35;;;;;;;2.55;1.60;;;22.80;40.40;;;;;;5047572;28;20398;-48
2020/12/01 13:51:01;;;;;;;1.80;1.50;;;22.90;40.40;;;;;;5048973;28;20529;-46
2020/12/01 13:53:27;;;;;;;2.05;1.85;;;22.90;40.30;;;;;;5065533;28;20040;-47
2020/12/01 13:55:53;;;;;;;4.97;1.90;;;22.90;40.30;;;;;;5034256;28;20056;-48